sensor_id;sensor_type;location;lat;lon;timestamp;P1;durP1;ratioP1;P2;durP2;ratioP2
69953;SDS011;57276;51.364;12.376;2023-05-16T00:00:07;10.80;;;7.47;;
69953;SDS011;57276;51.364;12.376;2023-05-16T00:06:09;10.38;;;7.55;;
69953;SDS011;57276;51.364;12.376;2023-05-16T00:12:11;13.43;;;8.10;;
69953;SDS011;57276;51.364;12.376;2023-05-16T00:18:13;12.38;;;7.80;;
69953;SDS011;57276;51.364;12.376;2023-05-16T00:24:17;11.80;;;8.10;;
69953;SDS011;57276;51.364;12.376;2023-05-16T00:30:18;13.70;;;8.18;;
69953;SDS011;57276;51.364;12.376;2023-05-16T00:36:20;12.07;;;7.80;;
69953;SDS011;57276;51.364;12.376;2023-05-16T00:42:24;11.27;;;8.27;;
69953;SDS011;57276;51.364;12.376;2023-05-16T00:48:25;13.35;;;8.55;;
69953;SDS011;57276;51.364;12.376;2023-05-16T00:54:28;15.53;;;8.73;;
69953;SDS011;57276;51.364;12.376;2023-05-16T01:00:30;13.50;;;8.60;;
69953;SDS011;57276;51.364;12.376;2023-05-16T01:06:33;13.32;;;8.38;;
69953;SDS011;57276;51.364;12.376;2023-05-16T01:12:44;15.93;;;8.83;;
69953;SDS011;57276;51.364;12.376;2023-05-16T01:24:58;13.57;;;8.57;;
69953;SDS011;57276;51.364;12.376;2023-05-16T01:31:02;17.20;;;8.48;;
69953;SDS011;57276;51.364;12.376;2023-05-16T01:37:15;12.43;;;8.63;;
69953;SDS011;57276;51.364;12.376;2023-05-16T01:43:20;12.90;;;8.40;;
69953;SDS011;57276;51.364;12.376;2023-05-16T01:49:34;15.18;;;8.60;;
69953;SDS011;57276;51.364;12.376;2023-05-16T01:55:44;15.63;;;8.40;;
69953;SDS011;57276;51.364;12.376;2023-05-16T02:01:46;13.35;;;7.80;;
69953;SDS011;57276;51.364;12.376;2023-05-16T02:07:48;14.93;;;8.32;;
69953;SDS011;57276;51.364;12.376;2023-05-16T02:13:50;16.67;;;8.10;;
69953;SDS011;57276;51.364;12.376;2023-05-16T02:19:52;13.57;;;8.32;;
69953;SDS011;57276;51.364;12.376;2023-05-16T02:25:53;17.40;;;10.30;;
69953;SDS011;57276;51.364;12.376;2023-05-16T02:31:56;17.92;;;10.25;;
69953;SDS011;57276;51.364;12.376;2023-05-16T02:37:57;18.40;;;10.13;;
69953;SDS011;57276;51.364;12.376;2023-05-16T02:43:59;24.40;;;13.73;;
69953;SDS011;57276;51.364;12.376;2023-05-16T02:50:00;27.70;;;14.93;;
69953;SDS011;57276;51.364;12.376;2023-05-16T02:56:03;26.67;;;15.70;;
69953;SDS011;57276;51.364;12.376;2023-05-16T03:02:07;28.95;;;15.30;;
69953;SDS011;57276;51.364;12.376;2023-05-16T03:08:08;32.13;;;16.02;;
69953;SDS011;57276;51.364;12.376;2023-05-16T03:14:10;28.97;;;15.83;;
69953;SDS011;57276;51.364;12.376;2023-05-16T03:20:12;29.27;;;15.95;;
69953;SDS011;57276;51.364;12.376;2023-05-16T03:26:13;33.03;;;17.27;;
69953;SDS011;57276;51.364;12.376;2023-05-16T03:32:15;31.88;;;16.83;;
69953;SDS011;57276;51.364;12.376;2023-05-16T03:38:17;28.35;;;15.35;;
69953;SDS011;57276;51.364;12.376;2023-05-16T03:44:18;28.87;;;16.03;;
69953;SDS011;57276;51.364;12.376;2023-05-16T03:50:20;28.73;;;15.65;;
69953;SDS011;57276;51.364;12.376;2023-05-16T03:56:22;27.43;;;15.27;;
69953;SDS011;57276;51.364;12.376;2023-05-16T04:02:24;27.35;;;14.15;;
69953;SDS011;57276;51.364;12.376;2023-05-16T04:08:26;24.17;;;13.85;;
69953;SDS011;57276;51.364;12.376;2023-05-16T04:14:28;26.07;;;13.47;;
69953;SDS011;57276;51.364;12.376;2023-05-16T04:20:29;24.52;;;14.15;;
69953;SDS011;57276;51.364;12.376;2023-05-16T04:26:33;22.40;;;12.70;;
69953;SDS011;57276;51.364;12.376;2023-05-16T04:32:34;20.20;;;11.70;;
69953;SDS011;57276;51.364;12.376;2023-05-16T04:38:37;24.35;;;13.32;;
69953;SDS011;57276;51.364;12.376;2023-05-16T04:44:38;23.90;;;12.20;;
69953;SDS011;57276;51.364;12.376;2023-05-16T04:50:40;24.02;;;13.38;;
69953;SDS011;57276;51.364;12.376;2023-05-16T04:56:41;23.70;;;13.10;;
69953;SDS011;57276;51.364;12.376;2023-05-16T05:02:43;23.88;;;12.88;;
69953;SDS011;57276;51.364;12.376;2023-05-16T05:08:44;22.23;;;12.68;;
69953;SDS011;57276;51.364;12.376;2023-05-16T05:14:46;20.00;;;11.23;;
69953;SDS011;57276;51.364;12.376;2023-05-16T05:20:49;18.58;;;10.88;;
69953;SDS011;57276;51.364;12.376;2023-05-16T05:26:50;15.30;;;9.43;;
69953;SDS011;57276;51.364;12.376;2023-05-16T05:32:52;16.38;;;9.27;;
69953;SDS011;57276;51.364;12.376;2023-05-16T05:38:55;13.07;;;7.80;;
69953;SDS011;57276;51.364;12.376;2023-05-16T05:44:56;13.63;;;6.90;;
69953;SDS011;57276;51.364;12.376;2023-05-16T05:50:58;11.07;;;6.85;;
69953;SDS011;57276;51.364;12.376;2023-05-16T05:57:01;12.27;;;6.00;;
69953;SDS011;57276;51.364;12.376;2023-05-16T06:03:03;10.35;;;5.43;;
69953;SDS011;57276;51.364;12.376;2023-05-16T06:09:05;9.45;;;5.22;;
69953;SDS011;57276;51.364;12.376;2023-05-16T06:15:08;10.17;;;5.00;;
69953;SDS011;57276;51.364;12.376;2023-05-16T06:21:09;9.32;;;5.10;;
69953;SDS011;57276;51.364;12.376;2023-05-16T06:27:11;10.23;;;5.23;;
69953;SDS011;57276;51.364;12.376;2023-05-16T06:33:14;8.95;;;4.57;;
69953;SDS011;57276;51.364;12.376;2023-05-16T06:39:16;7.28;;;4.20;;
69953;SDS011;57276;51.364;12.376;2023-05-16T06:45:20;6.13;;;3.47;;
69953;SDS011;57276;51.364;12.376;2023-05-16T06:51:22;6.03;;;3.63;;
69953;SDS011;57276;51.364;12.376;2023-05-16T06:57:24;7.37;;;3.77;;
69953;SDS011;57276;51.364;12.376;2023-05-16T07:03:28;9.23;;;4.10;;
69953;SDS011;57276;51.364;12.376;2023-05-16T07:09:29;8.68;;;3.85;;
69953;SDS011;57276;51.364;12.376;2023-05-16T07:15:31;7.33;;;3.30;;
69953;SDS011;57276;51.364;12.376;2023-05-16T07:21:33;6.53;;;3.58;;
69953;SDS011;57276;51.364;12.376;2023-05-16T07:27:35;6.30;;;3.57;;
69953;SDS011;57276;51.364;12.376;2023-05-16T07:33:36;9.00;;;3.42;;
69953;SDS011;57276;51.364;12.376;2023-05-16T07:39:38;7.03;;;3.50;;
69953;SDS011;57276;51.364;12.376;2023-05-16T07:45:40;8.53;;;3.60;;
69953;SDS011;57276;51.364;12.376;2023-05-16T07:51:42;6.10;;;3.75;;
69953;SDS011;57276;51.364;12.376;2023-05-16T07:57:44;6.53;;;3.93;;
69953;SDS011;57276;51.364;12.376;2023-05-16T08:03:46;7.82;;;3.67;;
69953;SDS011;57276;51.364;12.376;2023-05-16T08:09:47;6.95;;;3.65;;
69953;SDS011;57276;51.364;12.376;2023-05-16T08:15:49;7.10;;;3.30;;
69953;SDS011;57276;51.364;12.376;2023-05-16T08:21:51;6.97;;;3.10;;
69953;SDS011;57276;51.364;12.376;2023-05-16T08:27:52;6.47;;;2.60;;
69953;SDS011;57276;51.364;12.376;2023-05-16T08:33:55;5.40;;;2.80;;
69953;SDS011;57276;51.364;12.376;2023-05-16T08:39:57;5.15;;;2.38;;
69953;SDS011;57276;51.364;12.376;2023-05-16T08:45:58;7.23;;;2.23;;
69953;SDS011;57276;51.364;12.376;2023-05-16T08:52:00;6.03;;;2.20;;
69953;SDS011;57276;51.364;12.376;2023-05-16T08:58:02;4.93;;;1.90;;
69953;SDS011;57276;51.364;12.376;2023-05-16T09:04:05;3.75;;;1.80;;
69953;SDS011;57276;51.364;12.376;2023-05-16T09:10:07;3.40;;;1.40;;
69953;SDS011;57276;51.364;12.376;2023-05-16T09:16:10;5.80;;;1.80;;
69953;SDS011;57276;51.364;12.376;2023-05-16T09:22:12;7.35;;;2.17;;
69953;SDS011;57276;51.364;12.376;2023-05-16T09:28:14;4.77;;;2.30;;
69953;SDS011;57276;51.364;12.376;2023-05-16T09:34:16;5.25;;;2.08;;
69953;SDS011;57276;51.364;12.376;2023-05-16T09:40:21;3.65;;;1.90;;
69953;SDS011;57276;51.364;12.376;2023-05-16T09:46:25;6.27;;;2.10;;
69953;SDS011;57276;51.364;12.376;2023-05-16T09:52:28;7.07;;;1.95;;
69953;SDS011;57276;51.364;12.376;2023-05-16T09:58:31;5.27;;;2.10;;
69953;SDS011;57276;51.364;12.376;2023-05-16T10:04:33;7.22;;;1.63;;
69953;SDS011;57276;51.364;12.376;2023-05-16T10:10:35;4.70;;;1.33;;
69953;SDS011;57276;51.364;12.376;2023-05-16T10:16:40;4.47;;;1.50;;
69953;SDS011;57276;51.364;12.376;2023-05-16T10:22:43;4.63;;;1.60;;
69953;SDS011;57276;51.364;12.376;2023-05-16T10:28:46;5.27;;;1.27;;
69953;SDS011;57276;51.364;12.376;2023-05-16T10:34:48;5.07;;;1.70;;
69953;SDS011;57276;51.364;12.376;2023-05-16T10:40:50;6.70;;;1.63;;
69953;SDS011;57276;51.364;12.376;2023-05-16T10:46:51;5.40;;;1.70;;
69953;SDS011;57276;51.364;12.376;2023-05-16T10:52:53;7.43;;;1.92;;
69953;SDS011;57276;51.364;12.376;2023-05-16T10:58:54;7.17;;;1.90;;
69953;SDS011;57276;51.364;12.376;2023-05-16T11:04:57;5.97;;;1.55;;
69953;SDS011;57276;51.364;12.376;2023-05-16T11:17:22;8.83;;;1.97;;
69953;SDS011;57276;51.364;12.376;2023-05-16T11:23:24;6.82;;;2.13;;
69953;SDS011;57276;51.364;12.376;2023-05-16T11:29:33;8.43;;;2.03;;
69953;SDS011;57276;51.364;12.376;2023-05-16T11:35:35;6.90;;;1.48;;
69953;SDS011;57276;51.364;12.376;2023-05-16T11:41:37;7.13;;;1.60;;
69953;SDS011;57276;51.364;12.376;2023-05-16T11:47:39;7.60;;;2.10;;
69953;SDS011;57276;51.364;12.376;2023-05-16T11:53:41;6.68;;;1.90;;
69953;SDS011;57276;51.364;12.376;2023-05-16T11:59:43;5.87;;;1.57;;
69953;SDS011;57276;51.364;12.376;2023-05-16T12:05:51;8.00;;;1.80;;
69953;SDS011;57276;51.364;12.376;2023-05-16T12:11:53;10.02;;;1.98;;
69953;SDS011;57276;51.364;12.376;2023-05-16T12:17:55;7.50;;;1.80;;
69953;SDS011;57276;51.364;12.376;2023-05-16T12:23:57;7.65;;;1.80;;
69953;SDS011;57276;51.364;12.376;2023-05-16T12:30:01;9.13;;;1.77;;
69953;SDS011;57276;51.364;12.376;2023-05-16T12:36:02;10.07;;;1.75;;
69953;SDS011;57276;51.364;12.376;2023-05-16T12:42:05;9.02;;;1.65;;
69953;SDS011;57276;51.364;12.376;2023-05-16T12:48:11;8.20;;;1.70;;
69953;SDS011;57276;51.364;12.376;2023-05-16T12:54:13;7.10;;;1.35;;
69953;SDS011;57276;51.364;12.376;2023-05-16T13:00:18;8.37;;;1.43;;
69953;SDS011;57276;51.364;12.376;2023-05-16T13:06:19;9.55;;;1.60;;
69953;SDS011;57276;51.364;12.376;2023-05-16T13:12:21;10.35;;;1.52;;
69953;SDS011;57276;51.364;12.376;2023-05-16T13:18:27;8.07;;;1.60;;
69953;SDS011;57276;51.364;12.376;2023-05-16T13:24:28;8.63;;;1.55;;
69953;SDS011;57276;51.364;12.376;2023-05-16T13:30:30;5.50;;;1.27;;
69953;SDS011;57276;51.364;12.376;2023-05-16T13:36:33;5.90;;;1.30;;
69953;SDS011;57276;51.364;12.376;2023-05-16T13:42:53;6.63;;;1.30;;
69953;SDS011;57276;51.364;12.376;2023-05-16T13:48:55;5.90;;;1.60;;
69953;SDS011;57276;51.364;12.376;2023-05-16T13:54:56;12.40;;;2.10;;
69953;SDS011;57276;51.364;12.376;2023-05-16T14:00:58;5.37;;;1.60;;
69953;SDS011;57276;51.364;12.376;2023-05-16T14:07:00;8.38;;;1.45;;
69953;SDS011;57276;51.364;12.376;2023-05-16T14:13:01;6.53;;;1.30;;
69953;SDS011;57276;51.364;12.376;2023-05-16T14:19:08;7.33;;;1.27;;
69953;SDS011;57276;51.364;12.376;2023-05-16T14:25:09;6.57;;;1.30;;
69953;SDS011;57276;51.364;12.376;2023-05-16T14:31:13;6.57;;;1.40;;
69953;SDS011;57276;51.364;12.376;2023-05-16T14:37:15;6.68;;;1.60;;
69953;SDS011;57276;51.364;12.376;2023-05-16T14:43:17;7.55;;;1.60;;
69953;SDS011;57276;51.364;12.376;2023-05-16T14:49:19;6.40;;;1.20;;
69953;SDS011;57276;51.364;12.376;2023-05-16T14:55:20;5.40;;;1.40;;
69953;SDS011;57276;51.364;12.376;2023-05-16T15:01:22;4.20;;;1.77;;
69953;SDS011;57276;51.364;12.376;2023-05-16T15:07:24;7.93;;;2.10;;
69953;SDS011;57276;51.364;12.376;2023-05-16T15:13:26;4.60;;;1.30;;
69953;SDS011;57276;51.364;12.376;2023-05-16T15:19:28;6.13;;;1.13;;
69953;SDS011;57276;51.364;12.376;2023-05-16T15:25:29;6.65;;;1.20;;
69953;SDS011;57276;51.364;12.376;2023-05-16T15:31:31;5.43;;;1.13;;
69953;SDS011;57276;51.364;12.376;2023-05-16T15:37:33;4.63;;;1.13;;
69953;SDS011;57276;51.364;12.376;2023-05-16T15:43:35;4.78;;;1.13;;
69953;SDS011;57276;51.364;12.376;2023-05-16T15:49:37;6.03;;;1.50;;
69953;SDS011;57276;51.364;12.376;2023-05-16T15:55:38;5.30;;;1.10;;
69953;SDS011;57276;51.364;12.376;2023-05-16T16:01:40;5.50;;;1.40;;
69953;SDS011;57276;51.364;12.376;2023-05-16T16:07:42;5.63;;;1.20;;
69953;SDS011;57276;51.364;12.376;2023-05-16T16:13:44;6.38;;;1.30;;
69953;SDS011;57276;51.364;12.376;2023-05-16T16:19:46;6.90;;;1.47;;
69953;SDS011;57276;51.364;12.376;2023-05-16T16:25:48;5.78;;;1.05;;
69953;SDS011;57276;51.364;12.376;2023-05-16T16:32:02;6.10;;;1.20;;
69953;SDS011;57276;51.364;12.376;2023-05-16T16:38:04;3.95;;;1.00;;
69953;SDS011;57276;51.364;12.376;2023-05-16T16:44:09;4.40;;;1.15;;
69953;SDS011;57276;51.364;12.376;2023-05-16T16:50:11;4.30;;;0.97;;
69953;SDS011;57276;51.364;12.376;2023-05-16T16:56:13;6.13;;;1.08;;
69953;SDS011;57276;51.364;12.376;2023-05-16T17:02:14;3.63;;;0.87;;
69953;SDS011;57276;51.364;12.376;2023-05-16T17:08:16;5.07;;;0.95;;
69953;SDS011;57276;51.364;12.376;2023-05-16T17:14:17;4.40;;;0.90;;
69953;SDS011;57276;51.364;12.376;2023-05-16T17:20:20;6.13;;;0.90;;
69953;SDS011;57276;51.364;12.376;2023-05-16T17:26:21;6.07;;;1.40;;
69953;SDS011;57276;51.364;12.376;2023-05-16T17:32:23;3.83;;;0.90;;
69953;SDS011;57276;51.364;12.376;2023-05-16T17:38:25;3.83;;;0.93;;
69953;SDS011;57276;51.364;12.376;2023-05-16T17:44:27;3.40;;;1.10;;
69953;SDS011;57276;51.364;12.376;2023-05-16T17:50:29;4.27;;;0.90;;
69953;SDS011;57276;51.364;12.376;2023-05-16T17:56:31;4.43;;;0.82;;
69953;SDS011;57276;51.364;12.376;2023-05-16T18:02:33;4.23;;;0.80;;
69953;SDS011;57276;51.364;12.376;2023-05-16T18:08:38;5.03;;;0.93;;
69953;SDS011;57276;51.364;12.376;2023-05-16T18:14:40;4.93;;;0.85;;
69953;SDS011;57276;51.364;12.376;2023-05-16T18:20:45;3.73;;;0.87;;
69953;SDS011;57276;51.364;12.376;2023-05-16T18:26:49;4.30;;;1.10;;
69953;SDS011;57276;51.364;12.376;2023-05-16T18:32:51;3.00;;;0.90;;
69953;SDS011;57276;51.364;12.376;2023-05-16T18:38:53;7.00;;;1.00;;
69953;SDS011;57276;51.364;12.376;2023-05-16T18:44:56;4.18;;;1.00;;
69953;SDS011;57276;51.364;12.376;2023-05-16T18:50:58;3.23;;;0.80;;
69953;SDS011;57276;51.364;12.376;2023-05-16T18:57:00;3.08;;;0.70;;
69953;SDS011;57276;51.364;12.376;2023-05-16T19:03:02;4.20;;;0.90;;
69953;SDS011;57276;51.364;12.376;2023-05-16T19:09:04;4.65;;;0.90;;
69953;SDS011;57276;51.364;12.376;2023-05-16T19:15:06;4.28;;;0.80;;
69953;SDS011;57276;51.364;12.376;2023-05-16T19:21:08;4.87;;;0.90;;
69953;SDS011;57276;51.364;12.376;2023-05-16T19:27:11;3.70;;;0.73;;
69953;SDS011;57276;51.364;12.376;2023-05-16T19:33:14;5.00;;;0.90;;
69953;SDS011;57276;51.364;12.376;2023-05-16T19:39:16;5.35;;;0.70;;
69953;SDS011;57276;51.364;12.376;2023-05-16T19:45:18;5.05;;;0.90;;
69953;SDS011;57276;51.364;12.376;2023-05-16T19:51:20;6.20;;;0.97;;
69953;SDS011;57276;51.364;12.376;2023-05-16T19:57:43;3.40;;;0.80;;
69953;SDS011;57276;51.364;12.376;2023-05-16T20:03:45;3.90;;;1.00;;
69953;SDS011;57276;51.364;12.376;2023-05-16T20:09:47;5.45;;;0.70;;
69953;SDS011;57276;51.364;12.376;2023-05-16T20:15:49;4.40;;;0.80;;
69953;SDS011;57276;51.364;12.376;2023-05-16T20:21:51;2.57;;;0.60;;
69953;SDS011;57276;51.364;12.376;2023-05-16T20:27:55;2.78;;;0.70;;
69953;SDS011;57276;51.364;12.376;2023-05-16T20:33:57;3.27;;;0.80;;
69953;SDS011;57276;51.364;12.376;2023-05-16T20:39:59;4.75;;;0.80;;
69953;SDS011;57276;51.364;12.376;2023-05-16T20:46:01;3.38;;;0.60;;
69953;SDS011;57276;51.364;12.376;2023-05-16T20:52:02;4.30;;;0.80;;
69953;SDS011;57276;51.364;12.376;2023-05-16T20:58:04;3.67;;;0.68;;
69953;SDS011;57276;51.364;12.376;2023-05-16T21:04:06;3.47;;;0.67;;
69953;SDS011;57276;51.364;12.376;2023-05-16T21:10:08;4.30;;;0.70;;
69953;SDS011;57276;51.364;12.376;2023-05-16T21:16:09;3.65;;;0.73;;
69953;SDS011;57276;51.364;12.376;2023-05-16T21:22:13;4.43;;;0.50;;
69953;SDS011;57276;51.364;12.376;2023-05-16T21:28:14;3.22;;;0.68;;
69953;SDS011;57276;51.364;12.376;2023-05-16T21:34:16;4.50;;;0.90;;
69953;SDS011;57276;51.364;12.376;2023-05-16T21:40:17;4.25;;;0.75;;
69953;SDS011;57276;51.364;12.376;2023-05-16T21:46:25;3.45;;;1.00;;
69953;SDS011;57276;51.364;12.376;2023-05-16T21:52:27;4.40;;;0.70;;
69953;SDS011;57276;51.364;12.376;2023-05-16T21:58:29;5.05;;;0.93;;
69953;SDS011;57276;51.364;12.376;2023-05-16T22:04:30;4.23;;;0.70;;
69953;SDS011;57276;51.364;12.376;2023-05-16T22:10:32;3.00;;;0.70;;
69953;SDS011;57276;51.364;12.376;2023-05-16T22:16:34;4.35;;;0.75;;
69953;SDS011;57276;51.364;12.376;2023-05-16T22:22:36;4.40;;;0.70;;
69953;SDS011;57276;51.364;12.376;2023-05-16T22:28:37;4.15;;;0.80;;
69953;SDS011;57276;51.364;12.376;2023-05-16T22:34:41;4.33;;;0.80;;
69953;SDS011;57276;51.364;12.376;2023-05-16T22:40:43;3.22;;;0.60;;
69953;SDS011;57276;51.364;12.376;2023-05-16T22:46:46;5.72;;;0.82;;
69953;SDS011;57276;51.364;12.376;2023-05-16T22:52:49;7.50;;;0.80;;
69953;SDS011;57276;51.364;12.376;2023-05-16T22:58:50;3.28;;;0.80;;
69953;SDS011;57276;51.364;12.376;2023-05-16T23:04:52;4.07;;;0.70;;
69953;SDS011;57276;51.364;12.376;2023-05-16T23:10:54;4.93;;;0.70;;
69953;SDS011;57276;51.364;12.376;2023-05-16T23:16:56;4.28;;;0.90;;
69953;SDS011;57276;51.364;12.376;2023-05-16T23:22:57;4.43;;;0.80;;
69953;SDS011;57276;51.364;12.376;2023-05-16T23:29:01;2.95;;;0.68;;
69953;SDS011;57276;51.364;12.376;2023-05-16T23:35:02;4.40;;;0.80;;
69953;SDS011;57276;51.364;12.376;2023-05-16T23:41:04;5.75;;;0.98;;
69953;SDS011;57276;51.364;12.376;2023-05-16T23:47:07;4.80;;;1.00;;
69953;SDS011;57276;51.364;12.376;2023-05-16T23:53:09;5.07;;;1.03;;
69953;SDS011;57276;51.364;12.376;2023-05-16T23:59:10;4.47;;;0.90;;
